Time;durP1;ratioP1;P1;durP2;ratioP2;P2;SDS_P1;SDS_P2;PMS_P1;PMS_P2;Temp;Humidity;BMP_temperature;BMP_pressure;BME280_temperature;BME280_humidity;BME280_pressure;Samples;Min_cycle;Max_cycle;Signal;HPM_P1;HPM_P2
2021/12/20 00:01:38;;;;;;;8.43;3.05;;;;;;;25.31;36.04;97355.63;4966032;28;20496;-29
2021/12/20 00:04:04;;;;;;;6.00;2.90;;;;;;;25.31;36.30;97359.09;4980687;28;20513;-31
2021/12/20 00:06:29;;;;;;;8.95;2.90;;;;;;;25.31;36.14;97348.63;4965491;28;20127;-27
2021/12/20 00:08:55;;;;;;;5.75;2.63;;;;;;;25.33;36.16;97355.56;4981477;28;20026;-28
2021/12/20 00:11:20;;;;;;;5.57;2.65;;;;;;;25.33;36.17;97351.19;4983121;28;20025;-32
2021/12/20 00:13:45;;;;;;;6.90;3.00;;;;;;;25.33;36.09;97345.06;4980933;28;20528;-29
2021/12/20 00:16:11;;;;;;;4.63;2.67;;;;;;;25.31;36.12;97347.75;4978751;28;20030;-30
2021/12/20 00:18:36;;;;;;;6.85;3.10;;;;;;;25.31;36.12;97339.88;4979529;28;20038;-30
2021/12/20 00:21:02;;;;;;;7.88;3.15;;;;;;;25.30;36.11;97346.91;4982852;28;20050;-28
2021/12/20 00:23:27;;;;;;;5.70;2.67;;;;;;;25.31;36.25;97343.38;4982731;28;20033;-30
2021/12/20 00:25:53;;;;;;;7.15;2.65;;;;;;;25.30;36.16;97331.19;4968756;28;20525;-29
2021/12/20 00:28:19;;;;;;;7.93;2.80;;;;;;;25.30;36.25;97331.19;4986529;28;20116;-30
2021/12/20 00:30:44;;;;;;;6.38;2.47;;;;;;;25.30;36.22;97336.44;4972076;28;20061;-28
2021/12/20 00:33:10;;;;;;;5.18;2.70;;;;;;;25.31;36.40;97327.63;4965932;28;20057;-23
2021/12/20 00:35:35;;;;;;;6.50;2.88;;;;;;;25.31;36.16;97326.75;4981213;28;20501;-31
2021/12/20 00:40:44;;;;;;;6.28;2.63;;;;;;;25.30;36.29;97323.31;4981899;28;20072;-29
2021/12/20 00:43:10;;;;;;;5.28;2.30;;;;;;;25.30;36.26;97314.56;4986959;28;20037;-33
2021/12/20 00:45:36;;;;;;;4.82;2.33;;;;;;;25.30;36.25;97315.44;4966455;28;20021;-28
2021/12/20 00:48:03;;;;;;;4.95;2.50;;;;;;;25.29;36.38;97315.50;4947128;28;20790;-26
2021/12/20 00:50:28;;;;;;;5.28;2.53;;;;;;;25.28;36.32;97306.75;4982564;28;20030;-28
2021/12/20 00:52:54;;;;;;;5.80;2.42;;;;;;;25.28;36.39;97306.75;4981885;28;20040;-31
2021/12/20 00:55:20;;;;;;;4.47;2.30;;;;;;;25.27;36.25;97320.81;4966958;28;20034;-29
2021/12/20 00:57:46;;;;;;;3.75;2.28;;;;;;;25.27;36.25;97318.19;4962903;28;20053;-31
2021/12/20 01:00:13;;;;;;;4.97;2.35;;;;;;;25.27;36.31;97315.56;4970045;28;20566;-31
2021/12/20 01:02:39;;;;;;;4.97;2.40;;;;;;;25.27;36.29;97315.56;4962139;28;20042;-30
2021/12/20 01:05:04;;;;;;;6.30;2.55;;;;;;;25.28;36.22;97316.44;4989542;28;20026;-31
2021/12/20 01:07:30;;;;;;;7.75;2.63;;;;;;;25.26;36.43;97313.00;4967786;28;20057;-32
2021/12/20 01:09:59;;;;;;;5.05;2.22;;;;;;;25.26;36.29;97308.63;4988096;28;20026;-26
2021/12/20 01:12:28;;;;;;;7.90;2.38;;;;;;;25.27;36.23;97312.06;4988513;28;20022;-28
2021/12/20 01:14:59;;;;;;;7.22;2.35;;;;;;;25.27;36.30;97310.31;4988901;28;20038;-28
2021/12/20 01:17:24;;;;;;;4.53;2.30;;;;;;;25.27;36.36;97318.19;4987575;28;20029;-30
2021/12/20 01:19:49;;;;;;;6.07;2.30;;;;;;;25.26;36.36;97316.47;4986850;28;20034;-28
2021/12/20 01:22:15;;;;;;;3.85;1.85;;;;;;;25.26;36.40;97308.63;4969580;28;20205;-28
2021/12/20 01:24:40;;;;;;;6.25;2.08;;;;;;;25.27;36.34;97314.69;4988256;28;20034;-31
2021/12/20 01:27:05;;;;;;;4.13;2.20;;;;;;;25.27;36.24;97306.81;4986763;28;20044;-29
2021/12/20 01:29:31;;;;;;;4.97;2.17;;;;;;;25.26;36.40;97300.75;4987041;28;20069;-32
2021/12/20 01:31:56;;;;;;;5.15;2.45;;;;;;;25.27;36.38;97305.06;4987417;28;20084;-34
2021/12/20 01:34:22;;;;;;;3.95;1.80;;;;;;;25.26;36.41;97302.50;4986530;28;20170;-32
2021/12/20 01:36:47;;;;;;;3.95;2.10;;;;;;;25.26;36.24;97302.50;4987848;28;20033;-30
2021/12/20 01:39:13;;;;;;;3.47;2.05;;;;;;;25.25;36.29;97300.81;4988564;28;20029;-29
2021/12/20 01:41:42;;;;;;;4.28;2.20;;;;;;;25.25;36.24;97309.50;4967681;28;20032;-32
2021/12/20 01:44:08;;;;;;;4.75;2.08;;;;;;;25.25;36.31;97309.50;4985344;28;20155;-28
2021/12/20 01:46:33;;;;;;;5.25;2.30;;;;;;;25.24;36.28;97305.19;4988498;28;20451;-28
2021/12/20 01:49:00;;;;;;;3.67;2.00;;;;;;;25.25;36.41;97299.03;4985416;28;20060;-30
2021/12/20 01:54:03;;;;;;;2.67;1.90;;;;;;;25.25;36.30;97292.94;4987709;28;20578;-32
2021/12/20 01:56:31;;;;;;;3.95;1.90;;;;;;;25.24;36.25;97289.44;4986758;28;20045;-30
2021/12/20 01:59:06;;;;;;;4.45;2.10;;;;;;;25.25;36.47;97288.53;4988865;28;20085;-29
2021/12/20 02:01:31;;;;;;;4.50;2.38;;;;;;;25.24;36.37;97289.44;4988566;28;20030;-29
2021/12/20 02:04:00;;;;;;;3.67;1.83;;;;;;;25.24;36.36;97296.50;4973752;28;20450;-29
2021/12/20 02:06:31;;;;;;;5.65;2.13;;;;;;;25.23;36.26;97287.75;4975230;28;20450;-31
2021/12/20 02:08:58;;;;;;;3.35;1.98;;;;;;;25.23;36.29;97282.50;4971665;28;20069;-29
2021/12/20 02:11:23;;;;;;;3.00;1.80;;;;;;;25.22;36.40;97286.06;4990399;28;20045;-32
2021/12/20 02:13:49;;;;;;;2.75;1.60;;;;;;;25.22;36.36;97290.44;4991788;28;20026;-33
2021/12/20 02:16:14;;;;;;;3.08;1.92;;;;;;;25.22;36.38;97293.06;4992463;28;20037;-27
2021/12/20 02:18:40;;;;;;;3.47;1.67;;;;;;;25.20;36.27;97287.88;4988398;28;20233;-28
2021/12/20 02:21:05;;;;;;;4.28;2.08;;;;;;;25.21;36.40;97283.50;4987453;28;20550;-29
2021/12/20 02:23:31;;;;;;;4.60;2.05;;;;;;;25.21;36.27;97286.97;4984641;28;20105;-31
2021/12/20 02:25:56;;;;;;;3.90;1.80;;;;;;;25.21;36.28;97284.34;4989604;28;20038;-31
2021/12/20 02:28:23;;;;;;;3.58;2.03;;;;;;;25.20;36.33;97287.88;4970394;28;20034;-29
2021/12/20 02:39:01;;;;;;;2.88;1.52;;;;;;;25.18;36.24;97274.81;4988638;28;20107;-27
2021/12/20 02:41:31;;;;;;;2.70;1.67;;;;;;;25.18;36.26;97266.97;4987230;28;20021;-29
2021/12/20 02:44:02;;;;;;;4.38;1.80;;;;;;;25.20;36.23;97268.69;4988507;28;20057;-32
2021/12/20 02:49:01;;;;;;;2.83;1.73;;;;;;;25.20;36.31;97272.13;4970470;28;20038;-30
2021/12/20 02:51:27;;;;;;;2.88;1.73;;;;;;;25.20;36.33;97261.66;4988755;28;20041;-30
2021/12/20 02:53:53;;;;;;;4.30;1.75;;;;;;;25.19;36.13;97262.56;4989400;28;20034;-30
2021/12/20 02:56:19;;;;;;;8.52;3.67;;;;;;;25.19;35.91;97270.44;4988601;28;21072;-30
2021/12/20 02:58:44;;;;;;;6.93;2.90;;;;;;;25.17;35.61;97261.81;4962977;28;20050;-32
2021/12/20 03:01:10;;;;;;;7.85;2.45;;;;;;;25.17;35.84;97261.81;4984180;28;20030;-28
2021/12/20 03:03:36;;;;;;;5.28;1.88;;;;;;;25.16;35.86;97265.31;4983659;28;20282;-28
2021/12/20 03:06:12;;;;;;;3.92;1.77;;;;;;;25.15;36.05;97258.38;4979120;28;20644;-31
2021/12/20 03:08:39;;;;;;;2.80;1.67;;;;;;;25.16;35.96;97260.06;4957788;28;20037;-29
2021/12/20 03:11:05;;;;;;;3.75;1.73;;;;;;;25.14;35.94;97251.44;4988676;28;20223;-28
2021/12/20 03:13:30;;;;;;;3.80;1.85;;;;;;;25.16;35.95;97249.59;4987889;28;20038;-28
2021/12/20 03:15:55;;;;;;;2.67;1.50;;;;;;;25.14;36.12;97252.28;4989231;28;20544;-28
2021/12/20 03:18:21;;;;;;;3.20;2.15;;;;;;;25.15;36.18;97242.63;4988415;28;20038;-32
2021/12/20 03:20:46;;;;;;;3.95;1.75;;;;;;;25.14;36.08;97246.19;4988605;28;20022;-28
2021/12/20 03:23:11;;;;;;;3.70;2.00;;;;;;;25.14;36.00;97252.28;4987023;28;20563;-30
2021/12/20 03:25:37;;;;;;;4.28;1.70;;;;;;;25.14;36.10;97248.81;4986543;28;20045;-28
2021/12/20 03:28:02;;;;;;;2.88;1.60;;;;;;;25.15;36.18;97253.13;4986598;28;20444;-28
2021/12/20 03:30:28;;;;;;;2.90;1.45;;;;;;;25.15;36.23;97253.13;4973134;28;20533;-30
2021/12/20 03:32:53;;;;;;;3.78;1.42;;;;;;;25.13;36.10;97247.13;4971503;28;20384;-30
2021/12/20 03:35:19;;;;;;;4.75;1.70;;;;;;;25.13;35.99;97245.31;4988935;28;20497;-30
2021/12/20 03:37:44;;;;;;;2.97;1.50;;;;;;;25.13;35.91;97249.75;4990316;28;20030;-32
2021/12/20 03:40:10;;;;;;;3.65;1.60;;;;;;;25.14;36.05;97251.44;4986134;28;20120;-28
2021/12/20 03:42:39;;;;;;;3.05;1.83;;;;;;;25.14;36.12;97254.06;4988934;28;20030;-29
2021/12/20 03:45:05;;;;;;;1.90;1.52;;;;;;;25.14;35.90;97256.69;4990350;28;20033;-29
2021/12/20 03:47:30;;;;;;;8.05;1.80;;;;;;;25.14;36.05;97256.69;4972076;28;20065;-32
2021/12/20 03:49:56;;;;;;;2.08;1.50;;;;;;;25.14;35.95;97261.94;4987763;28;20038;-29
2021/12/20 03:52:21;;;;;;;3.28;1.90;;;;;;;25.15;36.03;97268.88;4972538;28;20033;-28
2021/12/20 03:54:47;;;;;;;3.17;1.55;;;;;;;25.14;36.09;97259.31;4971898;28;20034;-27
2021/12/20 03:57:13;;;;;;;2.88;1.55;;;;;;;25.15;35.99;97258.38;4983762;28;20029;-31
2021/12/20 03:59:38;;;;;;;1.77;1.40;;;;;;;25.14;35.78;97261.94;4987507;28;20468;-30
2021/12/20 04:02:05;;;;;;;2.17;1.60;;;;;;;25.14;35.89;97256.69;4988356;28;20229;-29
2021/12/20 04:04:31;;;;;;;1.63;1.35;;;;;;;25.13;36.01;97265.47;4970280;28;20062;-34
2021/12/20 04:06:56;;;;;;;4.18;1.80;;;;;;;25.13;35.86;97254.97;4989417;28;20483;-28
2021/12/20 04:09:22;;;;;;;4.45;1.98;;;;;;;25.12;35.99;97254.13;4991910;28;20041;-29
2021/12/20 04:11:47;;;;;;;1.98;1.20;;;;;;;25.13;35.87;97260.22;4986314;28;20030;-32
2021/12/20 04:14:12;;;;;;;2.67;1.67;;;;;;;25.12;35.96;97258.50;4989407;28;20723;-30
2021/12/20 04:16:38;;;;;;;4.78;1.52;;;;;;;25.12;35.79;97261.13;4988929;28;20030;-30
2021/12/20 04:19:03;;;;;;;1.73;1.55;;;;;;;25.13;35.96;97261.06;4990249;28;20040;-30
2021/12/20 04:21:30;;;;;;;1.70;1.35;;;;;;;25.13;35.98;97260.22;4984055;28;20084;-31
2021/12/20 04:23:55;;;;;;;2.35;1.52;;;;;;;25.13;36.03;97254.97;4986662;28;20026;-28
2021/12/20 04:26:21;;;;;;;2.75;1.58;;;;;;;25.13;35.78;97262.84;4989361;28;20030;-30
2021/12/20 04:28:46;;;;;;;5.05;1.70;;;;;;;25.12;35.85;97261.13;4985511;28;20033;-29
2021/12/20 04:31:12;;;;;;;2.35;1.45;;;;;;;25.12;35.89;97253.25;4968970;28;20691;-28
2021/12/20 04:33:37;;;;;;;1.48;1.35;;;;;;;25.12;35.84;97258.50;4967625;28;20018;-29
2021/12/20 04:36:03;;;;;;;1.67;1.33;;;;;;;25.12;35.92;97255.88;4988573;28;20496;-28
2021/12/20 04:38:30;;;;;;;2.38;1.45;;;;;;;25.11;35.78;97260.28;4988455;28;20311;-34
2021/12/20 04:40:55;;;;;;;3.63;1.70;;;;;;;25.12;35.67;97263.75;4988281;28;20022;-29
2021/12/20 04:43:21;;;;;;;2.20;1.38;;;;;;;25.12;35.98;97266.38;4987546;28;20381;-30
2021/12/20 04:45:46;;;;;;;1.92;1.38;;;;;;;25.12;35.87;97261.13;4970053;28;20077;-29
2021/12/20 04:48:11;;;;;;;1.98;1.50;;;;;;;25.12;35.90;97255.88;4984429;28;20030;-31
2021/12/20 04:50:37;;;;;;;3.53;1.45;;;;;;;25.11;35.89;97259.44;4970273;28;20045;-28
2021/12/20 04:53:02;;;;;;;1.52;1.30;;;;;;;25.11;35.91;97262.03;4986560;28;20034;-26
2021/12/20 04:55:28;;;;;;;2.35;1.50;;;;;;;25.09;35.80;97269.13;4985945;28;20719;-31
2021/12/20 04:57:54;;;;;;;2.97;1.38;;;;;;;25.11;35.86;97272.53;4969713;28;20025;-29
2021/12/20 05:00:25;;;;;;;2.53;1.52;;;;;;;25.10;35.87;97265.59;4967253;28;20121;-28
2021/12/20 05:02:50;;;;;;;2.60;1.27;;;;;;;25.10;35.94;97265.59;4987670;28;20149;-31
2021/12/20 05:05:16;;;;;;;2.33;1.40;;;;;;;25.10;35.74;97260.34;4987929;28;20285;-32
2021/12/20 05:07:44;;;;;;;2.20;1.60;;;;;;;25.10;35.78;97270.84;4970802;28;20050;-33
2021/12/20 05:10:13;;;;;;;2.70;1.33;;;;;;;25.08;35.67;97267.41;4988233;28;20064;-29
2021/12/20 05:12:39;;;;;;;1.73;1.48;;;;;;;25.08;35.79;97270.03;4956957;28;20033;-33
2021/12/20 05:15:05;;;;;;;4.13;1.75;;;;;;;25.08;35.80;97265.66;4968489;28;20064;-30
2021/12/20 05:17:30;;;;;;;2.13;1.48;;;;;;;25.07;35.80;97265.72;4956909;28;20125;-30
2021/12/20 05:19:56;;;;;;;2.05;1.50;;;;;;;25.07;35.83;97270.97;4985333;28;20041;-30
2021/12/20 05:22:21;;;;;;;1.58;1.27;;;;;;;25.07;35.51;97273.59;4971284;28;20526;-31
2021/12/20 05:24:47;;;;;;;1.85;1.45;;;;;;;25.08;35.62;97267.41;4971441;28;20029;-30
2021/12/20 05:27:12;;;;;;;1.83;1.50;;;;;;;25.07;35.70;97265.72;4987169;28;20034;-28
2021/12/20 05:29:37;;;;;;;2.15;1.55;;;;;;;25.06;35.56;97264.88;4986451;28;20026;-30
2021/12/20 05:32:05;;;;;;;1.70;1.27;;;;;;;25.07;35.71;97260.47;4985089;28;20026;-26
2021/12/20 05:34:30;;;;;;;1.42;1.30;;;;;;;25.07;35.84;97260.47;4987807;28;20034;-30
2021/12/20 05:36:56;;;;;;;1.80;1.23;;;;;;;25.07;35.67;97268.34;4986787;28;20480;-30
2021/12/20 05:39:21;;;;;;;2.33;1.40;;;;;;;25.05;35.68;97261.41;4992972;28;20500;-32
2021/12/20 05:41:47;;;;;;;2.97;1.30;;;;;;;25.05;35.77;97269.25;4972814;28;20571;-30
2021/12/20 05:44:12;;;;;;;2.05;1.42;;;;;;;25.04;35.70;97272.81;4990650;28;20485;-29
2021/12/20 05:46:37;;;;;;;1.65;1.30;;;;;;;25.06;35.83;97275.38;4988911;28;20080;-30
2021/12/20 05:49:03;;;;;;;1.50;1.30;;;;;;;25.05;35.54;97274.50;4989074;28;20034;-32
2021/12/20 05:51:28;;;;;;;2.33;1.63;;;;;;;25.04;35.66;97272.81;4990485;28;20523;-32
2021/12/20 05:53:54;;;;;;;2.33;1.20;;;;;;;25.05;35.63;97279.75;4992608;28;20077;-29
2021/12/20 05:56:19;;;;;;;2.00;1.30;;;;;;;25.05;35.70;97279.75;4983994;28;20038;-26
2021/12/20 05:58:45;;;;;;;1.67;1.40;;;;;;;25.04;35.59;97280.69;4984823;28;20042;-27
2021/12/20 06:01:10;;;;;;;2.13;1.60;;;;;;;25.05;35.66;97278.88;4986089;28;20041;-27
2021/12/20 06:03:35;;;;;;;1.15;1.05;;;;;;;25.05;35.61;97279.75;4984703;28;20254;-30
2021/12/20 06:06:01;;;;;;;1.95;1.40;;;;;;;25.04;35.49;97283.31;4986619;28;20488;-29
2021/12/20 06:08:26;;;;;;;2.20;1.45;;;;;;;25.04;35.50;97287.69;4984609;28;20041;-29
2021/12/20 06:10:52;;;;;;;5.15;1.73;;;;;;;25.05;35.42;97289.38;4967413;28;20034;-30
2021/12/20 06:13:17;;;;;;;2.60;1.40;;;;;;;25.04;35.68;97288.53;4983405;28;20034;-30
2021/12/20 06:15:42;;;;;;;1.50;1.23;;;;;;;25.05;35.63;97284.13;4983430;28;20030;-28
2021/12/20 06:18:08;;;;;;;1.50;1.40;;;;;;;25.04;35.49;97285.91;4969481;28;20396;-27
2021/12/20 06:20:33;;;;;;;2.58;1.42;;;;;;;25.04;35.60;97283.31;4985140;28;20030;-30
2021/12/20 06:22:59;;;;;;;2.05;1.58;;;;;;;25.03;35.59;97286.84;4982884;28;20033;-30
2021/12/20 06:25:26;;;;;;;1.50;1.40;;;;;;;25.04;35.45;97285.91;4988927;28;20045;-30
2021/12/20 06:27:52;;;;;;;2.60;1.50;;;;;;;25.05;35.48;97284.13;4988155;28;20029;-29
2021/12/20 06:30:17;;;;;;;3.00;1.35;;;;;;;25.04;35.48;97288.53;4991275;28;20026;-32
2021/12/20 06:32:43;;;;;;;1.30;1.20;;;;;;;25.04;35.46;97288.53;4970692;28;20023;-28
2021/12/20 06:35:09;;;;;;;1.73;1.33;;;;;;;25.04;35.50;97291.16;4982626;28;20045;-31
2021/12/20 06:37:34;;;;;;;2.33;1.40;;;;;;;25.05;35.61;97300.72;4984206;28;21508;-28
2021/12/20 06:40:00;;;;;;;2.55;1.23;;;;;;;25.05;35.31;97299.88;4983130;28;20026;-29
2021/12/20 06:42:25;;;;;;;4.00;1.27;;;;;;;25.05;35.31;97295.47;4982502;28;20030;-30
2021/12/20 06:44:51;;;;;;;2.85;1.30;;;;;;;25.06;35.34;97288.47;4987564;28;20520;-28
2021/12/20 06:47:17;;;;;;;1.48;1.33;;;;;;;25.07;35.21;97291.94;4988881;28;20038;-29
2021/12/20 06:49:42;;;;;;;2.35;1.30;;;;;;;25.05;35.50;97300.72;4964182;28;20096;-24
2021/12/20 06:52:08;;;;;;;1.50;1.40;;;;;;;25.07;35.19;97291.94;4984642;28;20041;-26
2021/12/20 06:54:33;;;;;;;1.50;1.20;;;;;;;25.08;35.41;97301.50;4951482;28;20077;-30
2021/12/20 06:56:59;;;;;;;1.40;1.10;;;;;;;25.08;35.51;97296.25;4982058;28;20277;-29
2021/12/20 06:59:24;;;;;;;1.83;1.40;;;;;;;25.07;35.33;97302.44;4983418;28;20100;-31
2021/12/20 07:01:50;;;;;;;3.50;1.15;;;;;;;25.08;35.29;97299.75;4983781;28;20107;-27
2021/12/20 07:04:15;;;;;;;11.32;3.67;;;;;;;25.08;35.09;97294.50;4986474;28;22895;-29
2021/12/20 07:06:41;;;;;;;8.70;3.88;;;;;;;25.05;34.17;97298.09;4986836;28;20048;-30
2021/12/20 07:09:07;;;;;;;2.95;1.98;;;;;;;25.04;34.25;97300.78;4988140;28;20558;-28
2021/12/20 07:11:33;;;;;;;3.38;1.90;;;;;;;25.03;34.59;97297.34;4985777;28;20042;-31
2021/12/20 07:13:58;;;;;;;5.57;2.08;;;;;;;25.03;34.78;97296.47;4983212;28;20555;-31
2021/12/20 07:16:24;;;;;;;8.85;4.40;;;;;;;25.02;34.23;97290.34;4982711;28;20029;-31
2021/12/20 07:18:49;;;;;;;9.85;4.05;;;;;;;25.01;34.34;97293.03;4980897;28;20034;-28
2021/12/20 07:21:15;;;;;;;12.07;4.10;;;;;;;25.00;34.38;97305.31;4965552;28;20029;-29
2021/12/20 07:23:40;;;;;;;9.85;3.80;;;;;;;25.00;34.74;97300.06;4983935;28;20049;-29
2021/12/20 07:26:06;;;;;;;9.93;4.00;;;;;;;25.01;34.84;97301.78;4987518;28;20061;-27
2021/12/20 07:28:32;;;;;;;11.35;3.53;;;;;;;25.02;34.90;97306.09;4951882;28;20152;-29
2021/12/20 07:30:57;;;;;;;7.47;3.55;;;;;;;25.03;35.05;97302.56;4968024;28;20506;-29
2021/12/20 07:33:23;;;;;;;7.88;3.40;;;;;;;25.04;34.93;97304.28;4967903;28;20038;-27
2021/12/20 07:35:49;;;;;;;10.18;3.80;;;;;;;25.06;34.85;97309.47;4982297;28;20660;-28
2021/12/20 07:38:15;;;;;;;8.13;3.50;;;;;;;25.08;34.93;97309.38;4983147;28;20040;-30
2021/12/20 07:40:48;;;;;;;9.18;3.60;;;;;;;25.08;35.04;97307.63;4972390;28;20047;-29
2021/12/20 07:43:14;;;;;;;8.50;3.60;;;;;;;25.09;35.06;97316.34;4979177;28;20018;-28
2021/12/20 07:45:41;;;;;;;11.65;3.40;;;;;;;25.11;34.93;97314.50;4963624;28;20772;-27
2021/12/20 07:48:06;;;;;;;12.88;5.88;;;;;;;25.11;34.29;97322.38;4982720;28;20676;-30
2021/12/20 07:50:32;;;;;;;11.75;6.35;;;;;;;25.08;33.23;97325.09;4981606;28;20034;-29
2021/12/20 07:52:57;;;;;;;10.15;5.63;;;;;;;25.05;32.48;97321.72;4963423;28;20874;-29
2021/12/20 07:55:24;;;;;;;7.53;4.80;;;;;;;25.02;32.24;97327.06;4979510;28;20104;-31
2021/12/20 07:57:51;;;;;;;11.02;5.40;;;;;;;24.98;31.91;97327.28;4963553;28;21009;-28
2021/12/20 08:00:16;;;;;;;10.07;5.38;;;;;;;24.97;32.05;97333.44;4979204;28;20034;-25
2021/12/20 08:02:42;;;;;;;10.90;4.88;;;;;;;24.94;31.80;97328.31;4980663;28;20025;-28
2021/12/20 08:05:07;;;;;;;6.60;4.88;;;;;;;24.91;31.82;97319.66;4979412;28;20618;-28
2021/12/20 08:07:33;;;;;;;8.55;5.15;;;;;;;24.90;31.72;97324.97;4980354;28;20136;-26
2021/12/20 08:09:58;;;;;;;8.73;4.78;;;;;;;24.87;31.68;97333.78;4978551;28;20814;-29
2021/12/20 08:12:24;;;;;;;13.55;5.70;;;;;;;24.80;31.35;97327.91;4961866;28;20042;-32
2021/12/20 08:14:49;;;;;;;7.13;5.43;;;;;;;24.83;31.02;97336.59;4963066;28;20022;-28
2021/12/20 08:17:14;;;;;;;7.13;5.47;;;;;;;24.79;31.33;97330.63;4982073;28;20025;-31
2021/12/20 08:19:40;;;;;;;12.93;5.63;;;;;;;24.77;30.72;97332.44;4979595;28;21043;-28
2021/12/20 08:22:05;;;;;;;7.45;5.30;;;;;;;24.74;30.86;97330.78;4980545;28;20033;-28
2021/12/20 08:24:31;;;;;;;10.40;5.20;;;;;;;24.73;30.82;97330.84;4982894;28;20117;-29
2021/12/20 08:26:56;;;;;;;8.02;3.80;;;;;;;24.73;31.63;97338.72;4984708;28;20034;-28
2021/12/20 08:29:23;;;;;;;8.40;3.42;;;;;;;24.72;32.40;97335.25;4984767;28;20692;-28
2021/12/20 08:31:50;;;;;;;5.65;3.40;;;;;;;24.75;32.65;97334.28;4964494;28;20674;-31
2021/12/20 08:34:15;;;;;;;7.40;3.38;;;;;;;24.75;33.10;97337.75;4964513;28;20087;-33
2021/12/20 08:36:40;;;;;;;6.13;3.30;;;;;;;24.77;33.25;97338.53;4983668;28;20037;-29
2021/12/20 08:39:06;;;;;;;9.57;2.63;;;;;;;24.79;33.36;97343.72;4948453;28;20439;-30
2021/12/20 08:41:31;;;;;;;7.05;3.10;;;;;;;24.82;33.70;97345.38;4970385;28;20605;-32
2021/12/20 08:43:57;;;;;;;6.35;2.72;;;;;;;24.83;33.71;97339.22;4988773;28;20523;-28
2021/12/20 08:46:22;;;;;;;5.05;2.80;;;;;;;24.86;33.97;97344.38;4982313;28;20120;-28
2021/12/20 08:48:48;;;;;;;5.75;3.20;;;;;;;24.87;33.87;97346.06;4977515;28;20563;-30
2021/12/20 08:51:14;;;;;;;4.53;2.70;;;;;;;24.89;33.77;97346.84;4984494;28;20116;-31
2021/12/20 08:53:40;;;;;;;6.93;2.90;;;;;;;24.92;34.07;97346.72;4979225;28;20112;-27
2021/12/20 08:56:05;;;;;;;5.93;2.90;;;;;;;24.93;34.07;97348.44;4946395;28;20598;-29
2021/12/20 08:58:31;;;;;;;5.38;2.88;;;;;;;24.94;34.19;97347.50;4982529;28;20575;-26
2021/12/20 09:00:56;;;;;;;4.32;2.80;;;;;;;24.97;34.30;97349.19;4980214;28;20087;-30
2021/12/20 09:03:22;;;;;;;6.50;2.70;;;;;;;24.98;34.34;97351.72;4977996;28;20034;-30
2021/12/20 09:05:47;;;;;;;7.07;2.60;;;;;;;25.00;34.31;97349.91;4964892;28;20105;-28
2021/12/20 09:08:15;;;;;;;6.18;2.88;;;;;;;25.02;34.17;97347.22;4983810;28;20062;-28
2021/12/20 09:10:40;;;;;;;8.93;2.88;;;;;;;25.03;34.45;97348.91;4967258;28;20097;-31
2021/12/20 09:13:06;;;;;;;7.30;2.53;;;;;;;25.03;34.22;97347.16;4985929;28;20041;-34
2021/12/20 09:15:31;;;;;;;3.88;2.53;;;;;;;25.04;34.27;97355.84;4969234;28;20466;-30
2021/12/20 09:17:57;;;;;;;19.75;7.25;;;;;;;25.03;32.12;97355.03;4985352;28;20554;-28
2021/12/20 09:20:23;;;;;;;25.50;10.20;;;;;;;24.92;27.58;97365.09;4989837;28;20519;-29
2021/12/20 09:22:51;;;;;;;21.48;9.85;;;;;;;24.75;26.79;97366.56;4985412;28;20108;-30
2021/12/20 09:25:17;;;;;;;16.75;9.52;;;;;;;24.55;26.46;97366.53;4970487;28;20023;-29
2021/12/20 09:27:43;;;;;;;14.43;7.90;;;;;;;24.40;26.92;97355.69;4967374;28;20052;-28
2021/12/20 09:30:08;;;;;;;14.45;6.45;;;;;;;24.32;28.26;97360.41;4983533;28;20060;-28
2021/12/20 09:32:34;;;;;;;12.45;6.38;;;;;;;24.26;28.99;97359.69;4982834;28;20440;-28
2021/12/20 09:34:59;;;;;;;7.75;5.25;;;;;;;24.25;29.26;97365.03;4985699;28;20030;-27
2021/12/20 09:37:25;;;;;;;11.10;5.18;;;;;;;24.25;30.21;97370.25;4983316;28;20030;-27
2021/12/20 09:39:54;;;;;;;12.05;5.15;;;;;;;24.27;30.59;97365.81;4985126;28;20732;-28
2021/12/20 09:42:19;;;;;;;8.23;4.55;;;;;;;24.29;30.82;97360.50;4968626;28;20496;-28
2021/12/20 09:44:44;;;;;;;9.90;4.80;;;;;;;24.32;31.17;97363.03;4966453;28;20126;-28
2021/12/20 09:47:10;;;;;;;8.07;3.80;;;;;;;24.35;31.14;97365.50;4985560;28;21613;-26
2021/12/20 09:49:35;;;;;;;7.47;4.45;;;;;;;24.37;31.55;97366.31;4984003;28;20030;-30
2021/12/20 09:52:01;;;;;;;9.20;4.38;;;;;;;24.41;31.47;97367.91;4981953;28;20534;-31
2021/12/20 09:54:27;;;;;;;17.40;5.78;;;;;;;24.42;31.62;97367.00;4983615;28;20114;-29
2021/12/20 09:56:53;;;;;;;20.48;6.03;;;;;;;24.45;31.82;97369.50;4984492;28;20026;-31
2021/12/20 09:59:19;;;;;;;27.05;7.57;;;;;;;24.47;32.05;97367.66;4966253;28;20030;-31
2021/12/20 10:01:45;;;;;;;26.85;8.05;;;;;;;24.49;32.10;97365.81;4983281;28;20248;-28
2021/12/20 10:04:10;;;;;;;23.15;7.40;;;;;;;24.51;31.96;97358.78;4983203;28;20034;-28
2021/12/20 10:06:36;;;;;;;25.23;7.35;;;;;;;24.53;32.22;97362.16;4986064;28;20557;-28
2021/12/20 10:09:10;;;;;;;21.20;6.70;;;;;;;24.56;32.10;97365.59;4984058;28;20033;-28
2021/12/20 10:11:37;;;;;;;22.17;6.32;;;;;;;24.58;32.26;97363.75;4982022;28;20077;-31
2021/12/20 10:14:10;;;;;;;18.27;6.28;;;;;;;24.59;32.35;97355.84;4983505;28;20038;-27
2021/12/20 10:16:36;;;;;;;18.15;5.57;;;;;;;24.63;32.44;97361.81;4967029;28;20034;-29
2021/12/20 10:19:09;;;;;;;16.17;5.60;;;;;;;24.65;32.41;97354.75;4988286;28;20619;-28
2021/12/20 10:21:36;;;;;;;14.65;5.45;;;;;;;24.66;32.40;97349.47;4986037;28;20731;-28
2021/12/20 10:24:01;;;;;;;15.15;4.63;;;;;;;24.69;32.27;97343.25;4969431;28;20103;-28
2021/12/20 10:26:27;;;;;;;14.55;5.05;;;;;;;24.70;32.22;97342.31;4986903;28;20034;-30
2021/12/20 10:28:53;;;;;;;12.00;5.00;;;;;;;24.73;32.70;97342.19;4955957;28;20026;-28
2021/12/20 10:31:23;;;;;;;13.65;5.22;;;;;;;24.74;32.50;97343.91;4971843;28;20038;-31
2021/12/20 10:34:02;;;;;;;16.95;5.22;;;;;;;24.75;32.58;97345.59;4984499;28;20030;-31
2021/12/20 10:36:27;;;;;;;15.73;4.60;;;;;;;24.76;32.56;97346.47;4991711;28;20148;-28
2021/12/20 10:38:57;;;;;;;11.32;4.50;;;;;;;24.77;32.70;97343.78;4989184;28;20108;-30
2021/12/20 10:41:37;;;;;;;8.15;4.38;;;;;;;24.78;32.75;97345.50;4989107;28;20029;-31
2021/12/20 10:44:19;;;;;;;8.65;4.45;;;;;;;24.78;32.67;97340.25;4988559;28;20037;-29
2021/12/20 10:46:50;;;;;;;16.02;4.57;;;;;;;24.82;32.89;97340.13;4986194;28;20478;-32
2021/12/20 10:49:16;;;;;;;15.73;4.50;;;;;;;24.82;32.78;97334.88;4991889;28;20032;-30
2021/12/20 10:51:51;;;;;;;8.75;3.67;;;;;;;24.84;32.84;97338.31;4987770;28;20404;-29
2021/12/20 10:54:20;;;;;;;8.73;4.00;;;;;;;24.85;32.96;97340.00;4988296;28;20061;-28
2021/12/20 10:56:51;;;;;;;8.52;4.05;;;;;;;24.86;32.85;97339.13;4978015;28;20148;-28
2021/12/20 10:59:25;;;;;;;9.38;4.10;;;;;;;24.86;33.01;97334.72;4991021;28;20227;-31
2021/12/20 11:04:42;;;;;;;7.82;3.92;;;;;;;24.89;32.96;97331.13;4988718;28;20040;-28
2021/12/20 11:09:40;;;;;;;8.57;4.00;;;;;;;24.90;33.17;97327.59;4991266;28;20153;-29
2021/12/20 11:12:08;;;;;;;11.85;3.40;;;;;;;24.90;33.05;97327.59;4992265;28;20146;-28
2021/12/20 11:14:34;;;;;;;6.82;3.28;;;;;;;24.92;33.05;97325.75;4990525;28;20081;-29
2021/12/20 11:17:00;;;;;;;10.45;3.72;;;;;;;24.94;33.15;97325.69;4982143;28;20596;-28
2021/12/20 11:19:32;;;;;;;10.50;3.80;;;;;;;24.95;33.14;97325.63;4990495;28;20026;-28
2021/12/20 11:22:07;;;;;;;5.47;3.28;;;;;;;24.96;33.21;97327.34;4989441;28;20027;-27
2021/12/20 11:24:32;;;;;;;10.73;3.90;;;;;;;24.97;33.40;97328.19;4990394;28;20511;-29
2021/12/20 11:26:58;;;;;;;12.55;3.40;;;;;;;24.99;33.29;97321.09;4988630;28;20187;-27
2021/12/20 11:29:24;;;;;;;7.03;3.35;;;;;;;24.99;33.22;97321.97;4971258;28;20068;-28
2021/12/20 11:31:49;;;;;;;6.28;3.47;;;;;;;25.00;33.19;97321.06;4987549;28;20661;-27
2021/12/20 11:34:15;;;;;;;8.02;3.55;;;;;;;25.01;33.08;97325.38;4970959;28;20037;-29
2021/12/20 11:36:41;;;;;;;7.75;3.42;;;;;;;25.02;33.15;97311.34;4989507;28;20033;-28
2021/12/20 11:39:07;;;;;;;5.18;2.80;;;;;;;25.03;33.30;97322.69;4990957;28;20058;-29
2021/12/20 11:41:32;;;;;;;6.70;3.10;;;;;;;25.03;33.31;97318.31;4990262;28;20026;-27
2021/12/20 11:43:58;;;;;;;5.10;2.80;;;;;;;25.05;33.36;97312.97;4988524;28;20164;-28
2021/12/20 11:46:35;;;;;;;5.68;2.90;;;;;;;25.05;33.40;97311.22;4970564;28;20224;-30
2021/12/20 11:49:00;;;;;;;4.68;2.78;;;;;;;25.08;33.29;97306.75;4975548;28;20049;-29